sensor_id;sensor_type;location;lat;lon;timestamp;temperature;humidity
22383;DHT22;11359;45.802;13.530;2023-04-15T00:01:27;14.40;58.40
22383;DHT22;11359;45.802;13.530;2023-04-15T00:03:55;14.40;58.30
22383;DHT22;11359;45.802;13.530;2023-04-15T00:06:21;14.40;58.30
22383;DHT22;11359;45.802;13.530;2023-04-15T00:08:50;14.40;58.20
22383;DHT22;11359;45.802;13.530;2023-04-15T00:11:16;14.40;58.20
22383;DHT22;11359;45.802;13.530;2023-04-15T00:13:42;14.40;58.20
22383;DHT22;11359;45.802;13.530;2023-04-15T00:16:09;14.30;58.10
22383;DHT22;11359;45.802;13.530;2023-04-15T00:18:36;14.30;58.00
22383;DHT22;11359;45.802;13.530;2023-04-15T00:21:02;14.30;58.00
22383;DHT22;11359;45.802;13.530;2023-04-15T00:23:28;14.30;58.00
22383;DHT22;11359;45.802;13.530;2023-04-15T00:25:54;14.30;58.00
22383;DHT22;11359;45.802;13.530;2023-04-15T00:28:20;14.20;58.00
22383;DHT22;11359;45.802;13.530;2023-04-15T00:30:46;14.20;58.10
22383;DHT22;11359;45.802;13.530;2023-04-15T00:33:12;14.20;58.10
22383;DHT22;11359;45.802;13.530;2023-04-15T00:35:38;14.20;58.20
22383;DHT22;11359;45.802;13.530;2023-04-15T00:38:05;14.20;58.20
22383;DHT22;11359;45.802;13.530;2023-04-15T00:40:33;14.20;58.30
22383;DHT22;11359;45.802;13.530;2023-04-15T00:42:59;14.20;58.20
22383;DHT22;11359;45.802;13.530;2023-04-15T00:45:25;14.20;58.30
22383;DHT22;11359;45.802;13.530;2023-04-15T00:47:52;14.20;58.30
22383;DHT22;11359;45.802;13.530;2023-04-15T00:50:19;14.20;58.30
22383;DHT22;11359;45.802;13.530;2023-04-15T00:52:44;14.20;58.30
22383;DHT22;11359;45.802;13.530;2023-04-15T00:55:11;14.30;58.40
22383;DHT22;11359;45.802;13.530;2023-04-15T00:57:38;14.20;58.30
22383;DHT22;11359;45.802;13.530;2023-04-15T01:00:06;14.20;58.30
22383;DHT22;11359;45.802;13.530;2023-04-15T01:02:39;14.20;58.30
22383;DHT22;11359;45.802;13.530;2023-04-15T01:05:04;14.20;58.30
22383;DHT22;11359;45.802;13.530;2023-04-15T01:07:30;14.20;58.30
22383;DHT22;11359;45.802;13.530;2023-04-15T01:09:56;14.20;58.30
22383;DHT22;11359;45.802;13.530;2023-04-15T01:12:23;14.20;58.30
22383;DHT22;11359;45.802;13.530;2023-04-15T01:14:50;14.20;58.30
22383;DHT22;11359;45.802;13.530;2023-04-15T01:17:16;14.20;58.30
22383;DHT22;11359;45.802;13.530;2023-04-15T01:19:42;14.20;58.30
22383;DHT22;11359;45.802;13.530;2023-04-15T01:22:08;14.20;58.40
22383;DHT22;11359;45.802;13.530;2023-04-15T01:24:34;14.20;58.40
22383;DHT22;11359;45.802;13.530;2023-04-15T01:27:03;14.20;58.40
22383;DHT22;11359;45.802;13.530;2023-04-15T01:29:30;14.20;58.40
22383;DHT22;11359;45.802;13.530;2023-04-15T01:31:56;14.10;58.40
22383;DHT22;11359;45.802;13.530;2023-04-15T01:34:25;14.10;58.40
22383;DHT22;11359;45.802;13.530;2023-04-15T01:36:51;14.10;58.40
22383;DHT22;11359;45.802;13.530;2023-04-15T01:39:17;14.10;58.40
22383;DHT22;11359;45.802;13.530;2023-04-15T01:41:43;14.10;58.30
22383;DHT22;11359;45.802;13.530;2023-04-15T01:44:09;14.10;58.30
22383;DHT22;11359;45.802;13.530;2023-04-15T01:46:35;14.10;58.30
22383;DHT22;11359;45.802;13.530;2023-04-15T01:49:00;14.10;58.40
22383;DHT22;11359;45.802;13.530;2023-04-15T01:51:26;14.10;58.40
22383;DHT22;11359;45.802;13.530;2023-04-15T01:53:52;14.10;58.40
22383;DHT22;11359;45.802;13.530;2023-04-15T01:56:21;14.10;58.40
22383;DHT22;11359;45.802;13.530;2023-04-15T01:58:48;14.10;58.40
22383;DHT22;11359;45.802;13.530;2023-04-15T02:01:14;14.10;58.40
22383;DHT22;11359;45.802;13.530;2023-04-15T02:03:41;14.10;58.40
22383;DHT22;11359;45.802;13.530;2023-04-15T02:06:07;14.00;58.40
22383;DHT22;11359;45.802;13.530;2023-04-15T02:08:32;14.10;58.40
22383;DHT22;11359;45.802;13.530;2023-04-15T02:10:58;14.00;58.30
22383;DHT22;11359;45.802;13.530;2023-04-15T02:13:25;14.10;58.30
22383;DHT22;11359;45.802;13.530;2023-04-15T02:15:51;14.00;58.30
22383;DHT22;11359;45.802;13.530;2023-04-15T02:18:17;14.00;58.30
22383;DHT22;11359;45.802;13.530;2023-04-15T02:20:43;14.00;58.30
22383;DHT22;11359;45.802;13.530;2023-04-15T02:23:09;14.00;58.30
22383;DHT22;11359;45.802;13.530;2023-04-15T02:25:36;14.00;58.30
22383;DHT22;11359;45.802;13.530;2023-04-15T02:28:03;14.00;58.30
22383;DHT22;11359;45.802;13.530;2023-04-15T02:30:28;14.00;58.30
22383;DHT22;11359;45.802;13.530;2023-04-15T02:32:55;14.00;58.40
22383;DHT22;11359;45.802;13.530;2023-04-15T02:35:21;14.00;58.30
22383;DHT22;11359;45.802;13.530;2023-04-15T02:37:50;14.00;58.20
22383;DHT22;11359;45.802;13.530;2023-04-15T02:40:17;14.00;58.20
22383;DHT22;11359;45.802;13.530;2023-04-15T02:42:43;13.90;58.10
22383;DHT22;11359;45.802;13.530;2023-04-15T02:45:09;14.00;58.20
22383;DHT22;11359;45.802;13.530;2023-04-15T02:47:36;13.90;58.10
22383;DHT22;11359;45.802;13.530;2023-04-15T02:50:05;13.90;58.10
22383;DHT22;11359;45.802;13.530;2023-04-15T02:52:31;13.90;58.20
22383;DHT22;11359;45.802;13.530;2023-04-15T02:54:57;13.90;58.20
22383;DHT22;11359;45.802;13.530;2023-04-15T02:57:28;13.90;58.20
22383;DHT22;11359;45.802;13.530;2023-04-15T02:59:56;13.90;58.20
22383;DHT22;11359;45.802;13.530;2023-04-15T03:02:22;13.90;58.20
22383;DHT22;11359;45.802;13.530;2023-04-15T03:04:48;13.90;58.20
22383;DHT22;11359;45.802;13.530;2023-04-15T03:07:14;13.80;58.20
22383;DHT22;11359;45.802;13.530;2023-04-15T03:09:39;13.80;58.20
22383;DHT22;11359;45.802;13.530;2023-04-15T03:12:05;13.80;58.20
22383;DHT22;11359;45.802;13.530;2023-04-15T03:14:31;13.80;58.20
22383;DHT22;11359;45.802;13.530;2023-04-15T03:16:57;13.80;58.20
22383;DHT22;11359;45.802;13.530;2023-04-15T03:19:24;13.80;58.20
22383;DHT22;11359;45.802;13.530;2023-04-15T03:21:50;13.80;58.20
22383;DHT22;11359;45.802;13.530;2023-04-15T03:24:16;13.80;58.20
22383;DHT22;11359;45.802;13.530;2023-04-15T03:26:43;13.80;58.20
22383;DHT22;11359;45.802;13.530;2023-04-15T03:29:09;13.80;58.20
22383;DHT22;11359;45.802;13.530;2023-04-15T03:31:35;13.80;58.20
22383;DHT22;11359;45.802;13.530;2023-04-15T03:34:01;13.80;58.20
22383;DHT22;11359;45.802;13.530;2023-04-15T03:36:29;13.80;58.20
22383;DHT22;11359;45.802;13.530;2023-04-15T03:38:57;13.80;58.10
22383;DHT22;11359;45.802;13.530;2023-04-15T03:41:23;13.80;58.10
22383;DHT22;11359;45.802;13.530;2023-04-15T03:43:49;13.80;58.10
22383;DHT22;11359;45.802;13.530;2023-04-15T03:46:17;13.80;58.10
22383;DHT22;11359;45.802;13.530;2023-04-15T03:48:42;13.80;58.10
22383;DHT22;11359;45.802;13.530;2023-04-15T03:51:08;13.80;58.10
22383;DHT22;11359;45.802;13.530;2023-04-15T03:53:34;13.80;58.10
22383;DHT22;11359;45.802;13.530;2023-04-15T03:56:00;13.80;58.10
22383;DHT22;11359;45.802;13.530;2023-04-15T03:58:26;13.80;58.10
22383;DHT22;11359;45.802;13.530;2023-04-15T04:00:51;13.80;58.10
22383;DHT22;11359;45.802;13.530;2023-04-15T04:03:17;13.80;58.20
22383;DHT22;11359;45.802;13.530;2023-04-15T04:05:43;13.70;58.10
22383;DHT22;11359;45.802;13.530;2023-04-15T04:08:09;13.80;58.20
22383;DHT22;11359;45.802;13.530;2023-04-15T04:10:38;13.70;58.10
22383;DHT22;11359;45.802;13.530;2023-04-15T04:13:04;13.70;58.10
22383;DHT22;11359;45.802;13.530;2023-04-15T04:15:30;13.70;58.00
22383;DHT22;11359;45.802;13.530;2023-04-15T04:17:55;13.70;58.00
22383;DHT22;11359;45.802;13.530;2023-04-15T04:20:21;13.70;58.10
22383;DHT22;11359;45.802;13.530;2023-04-15T04:22:47;13.70;58.10
22383;DHT22;11359;45.802;13.530;2023-04-15T04:25:13;13.70;58.10
22383;DHT22;11359;45.802;13.530;2023-04-15T04:27:39;13.70;58.10
22383;DHT22;11359;45.802;13.530;2023-04-15T04:30:05;13.70;58.10
22383;DHT22;11359;45.802;13.530;2023-04-15T04:32:31;13.70;58.20
22383;DHT22;11359;45.802;13.530;2023-04-15T04:34:57;13.70;58.10
22383;DHT22;11359;45.802;13.530;2023-04-15T04:37:22;13.70;58.20
22383;DHT22;11359;45.802;13.530;2023-04-15T04:39:49;13.70;58.20
22383;DHT22;11359;45.802;13.530;2023-04-15T04:42:14;13.70;58.20
22383;DHT22;11359;45.802;13.530;2023-04-15T04:44:40;13.70;58.20
22383;DHT22;11359;45.802;13.530;2023-04-15T04:47:06;13.70;58.20
22383;DHT22;11359;45.802;13.530;2023-04-15T04:49:32;13.70;58.20
22383;DHT22;11359;45.802;13.530;2023-04-15T04:51:58;13.70;58.20
22383;DHT22;11359;45.802;13.530;2023-04-15T04:54:24;13.70;58.10
22383;DHT22;11359;45.802;13.530;2023-04-15T04:56:50;13.70;58.10
22383;DHT22;11359;45.802;13.530;2023-04-15T04:59:16;13.70;58.10
22383;DHT22;11359;45.802;13.530;2023-04-15T05:01:42;13.70;58.10
22383;DHT22;11359;45.802;13.530;2023-04-15T05:04:08;13.70;58.10
22383;DHT22;11359;45.802;13.530;2023-04-15T05:06:33;13.70;58.10
22383;DHT22;11359;45.802;13.530;2023-04-15T05:09:01;13.70;58.10
22383;DHT22;11359;45.802;13.530;2023-04-15T05:11:28;13.70;58.10
22383;DHT22;11359;45.802;13.530;2023-04-15T05:13:53;13.70;58.10
22383;DHT22;11359;45.802;13.530;2023-04-15T05:16:19;13.70;58.10
22383;DHT22;11359;45.802;13.530;2023-04-15T05:18:45;13.70;58.20
22383;DHT22;11359;45.802;13.530;2023-04-15T05:21:11;13.70;58.20
22383;DHT22;11359;45.802;13.530;2023-04-15T05:23:37;13.70;58.20
22383;DHT22;11359;45.802;13.530;2023-04-15T05:26:03;13.70;58.20
22383;DHT22;11359;45.802;13.530;2023-04-15T05:28:28;13.80;58.20
22383;DHT22;11359;45.802;13.530;2023-04-15T05:30:54;13.80;58.30
22383;DHT22;11359;45.802;13.530;2023-04-15T05:33:20;13.80;58.30
22383;DHT22;11359;45.802;13.530;2023-04-15T05:35:46;13.80;58.30
22383;DHT22;11359;45.802;13.530;2023-04-15T05:38:12;13.80;58.30
22383;DHT22;11359;45.802;13.530;2023-04-15T05:40:38;13.90;58.30
22383;DHT22;11359;45.802;13.530;2023-04-15T05:43:04;13.90;58.30
22383;DHT22;11359;45.802;13.530;2023-04-15T05:45:29;13.90;58.30
22383;DHT22;11359;45.802;13.530;2023-04-15T05:47:55;13.90;58.20
22383;DHT22;11359;45.802;13.530;2023-04-15T05:50:21;13.90;58.20
22383;DHT22;11359;45.802;13.530;2023-04-15T05:52:47;14.00;58.30
22383;DHT22;11359;45.802;13.530;2023-04-15T05:55:13;14.00;58.30
22383;DHT22;11359;45.802;13.530;2023-04-15T05:57:39;14.00;58.30
22383;DHT22;11359;45.802;13.530;2023-04-15T06:00:05;14.00;58.30
22383;DHT22;11359;45.802;13.530;2023-04-15T06:02:31;14.10;58.40
22383;DHT22;11359;45.802;13.530;2023-04-15T06:04:57;14.10;58.30
22383;DHT22;11359;45.802;13.530;2023-04-15T06:07:23;14.20;58.40
22383;DHT22;11359;45.802;13.530;2023-04-15T06:09:49;14.20;58.30
22383;DHT22;11359;45.802;13.530;2023-04-15T06:12:15;14.20;58.30
22383;DHT22;11359;45.802;13.530;2023-04-15T06:14:41;14.20;58.30
22383;DHT22;11359;45.802;13.530;2023-04-15T06:17:07;14.30;58.30
22383;DHT22;11359;45.802;13.530;2023-04-15T06:19:34;14.30;58.30
22383;DHT22;11359;45.802;13.530;2023-04-15T06:22:01;14.30;58.30
22383;DHT22;11359;45.802;13.530;2023-04-15T06:24:28;14.40;58.20
22383;DHT22;11359;45.802;13.530;2023-04-15T06:26:53;14.40;58.20
22383;DHT22;11359;45.802;13.530;2023-04-15T06:29:19;14.50;58.20
22383;DHT22;11359;45.802;13.530;2023-04-15T06:31:47;14.50;58.20
22383;DHT22;11359;45.802;13.530;2023-04-15T06:34:14;14.50;58.10
22383;DHT22;11359;45.802;13.530;2023-04-15T06:36:40;14.50;58.00
22383;DHT22;11359;45.802;13.530;2023-04-15T06:39:05;14.50;58.00
22383;DHT22;11359;45.802;13.530;2023-04-15T06:41:31;14.60;58.00
22383;DHT22;11359;45.802;13.530;2023-04-15T06:43:57;14.50;57.90
22383;DHT22;11359;45.802;13.530;2023-04-15T06:46:23;14.60;57.90
22383;DHT22;11359;45.802;13.530;2023-04-15T06:48:48;14.60;57.90
22383;DHT22;11359;45.802;13.530;2023-04-15T06:51:14;14.60;57.90
22383;DHT22;11359;45.802;13.530;2023-04-15T06:53:40;14.60;57.80
22383;DHT22;11359;45.802;13.530;2023-04-15T06:56:08;14.70;57.90
22383;DHT22;11359;45.802;13.530;2023-04-15T06:58:34;14.70;57.80
22383;DHT22;11359;45.802;13.530;2023-04-15T07:01:00;14.70;57.80
22383;DHT22;11359;45.802;13.530;2023-04-15T07:03:26;14.70;57.80
22383;DHT22;11359;45.802;13.530;2023-04-15T07:05:52;14.80;57.80
22383;DHT22;11359;45.802;13.530;2023-04-15T07:08:18;14.80;57.80
22383;DHT22;11359;45.802;13.530;2023-04-15T07:10:45;14.80;57.80
22383;DHT22;11359;45.802;13.530;2023-04-15T07:13:11;14.90;57.80
22383;DHT22;11359;45.802;13.530;2023-04-15T07:15:37;14.90;57.80
22383;DHT22;11359;45.802;13.530;2023-04-15T07:18:03;14.90;57.70
22383;DHT22;11359;45.802;13.530;2023-04-15T07:20:32;15.00;57.70
22383;DHT22;11359;45.802;13.530;2023-04-15T07:22:57;15.00;57.70
22383;DHT22;11359;45.802;13.530;2023-04-15T07:25:23;15.10;57.70
22383;DHT22;11359;45.802;13.530;2023-04-15T07:27:50;15.10;57.70
22383;DHT22;11359;45.802;13.530;2023-04-15T07:30:16;15.20;57.70
22383;DHT22;11359;45.802;13.530;2023-04-15T07:32:42;15.20;57.60
22383;DHT22;11359;45.802;13.530;2023-04-15T07:35:08;15.30;57.60
22383;DHT22;11359;45.802;13.530;2023-04-15T07:37:34;15.30;57.60
22383;DHT22;11359;45.802;13.530;2023-04-15T07:40:00;15.40;57.50
22383;DHT22;11359;45.802;13.530;2023-04-15T07:42:26;15.50;57.50
22383;DHT22;11359;45.802;13.530;2023-04-15T07:44:53;15.50;57.40
22383;DHT22;11359;45.802;13.530;2023-04-15T07:47:19;15.50;57.30
22383;DHT22;11359;45.802;13.530;2023-04-15T07:49:45;15.50;57.20
22383;DHT22;11359;45.802;13.530;2023-04-15T07:52:11;15.60;57.20
22383;DHT22;11359;45.802;13.530;2023-04-15T07:54:37;15.60;57.20
22383;DHT22;11359;45.802;13.530;2023-04-15T07:57:03;15.60;57.10
22383;DHT22;11359;45.802;13.530;2023-04-15T07:59:29;15.70;57.10
22383;DHT22;11359;45.802;13.530;2023-04-15T08:01:57;15.70;57.10
22383;DHT22;11359;45.802;13.530;2023-04-15T08:04:24;15.70;57.00
22383;DHT22;11359;45.802;13.530;2023-04-15T08:06:50;15.80;57.00
22383;DHT22;11359;45.802;13.530;2023-04-15T08:09:16;15.80;57.00
22383;DHT22;11359;45.802;13.530;2023-04-15T08:11:42;15.90;57.00
22383;DHT22;11359;45.802;13.530;2023-04-15T08:14:08;15.90;57.00
22383;DHT22;11359;45.802;13.530;2023-04-15T08:16:37;16.00;57.00
22383;DHT22;11359;45.802;13.530;2023-04-15T08:19:02;16.00;57.00
22383;DHT22;11359;45.802;13.530;2023-04-15T08:21:29;16.00;56.90
22383;DHT22;11359;45.802;13.530;2023-04-15T08:23:56;16.10;56.90
22383;DHT22;11359;45.802;13.530;2023-04-15T08:26:22;16.20;56.90
22383;DHT22;11359;45.802;13.530;2023-04-15T08:28:48;16.20;56.90
22383;DHT22;11359;45.802;13.530;2023-04-15T08:31:15;16.30;56.80
22383;DHT22;11359;45.802;13.530;2023-04-15T08:33:41;16.30;56.80
22383;DHT22;11359;45.802;13.530;2023-04-15T08:36:08;16.30;56.70
22383;DHT22;11359;45.802;13.530;2023-04-15T08:38:34;16.40;56.70
22383;DHT22;11359;45.802;13.530;2023-04-15T08:41:11;16.40;56.80
22383;DHT22;11359;45.802;13.530;2023-04-15T08:43:52;16.50;56.70
22383;DHT22;11359;45.802;13.530;2023-04-15T08:46:19;16.50;56.60
22383;DHT22;11359;45.802;13.530;2023-04-15T08:48:47;16.50;56.60
22383;DHT22;11359;45.802;13.530;2023-04-15T08:51:13;16.60;56.60
22383;DHT22;11359;45.802;13.530;2023-04-15T08:53:44;16.60;56.50
22383;DHT22;11359;45.802;13.530;2023-04-15T08:56:12;16.60;56.50
22383;DHT22;11359;45.802;13.530;2023-04-15T08:58:38;16.70;56.50
22383;DHT22;11359;45.802;13.530;2023-04-15T09:01:04;16.70;56.50
22383;DHT22;11359;45.802;13.530;2023-04-15T09:03:31;16.70;56.40
22383;DHT22;11359;45.802;13.530;2023-04-15T09:05:57;16.70;56.40
22383;DHT22;11359;45.802;13.530;2023-04-15T09:08:23;16.80;56.40
22383;DHT22;11359;45.802;13.530;2023-04-15T09:10:49;16.80;56.40
22383;DHT22;11359;45.802;13.530;2023-04-15T09:13:17;16.80;56.40
22383;DHT22;11359;45.802;13.530;2023-04-15T09:15:42;16.90;56.50
22383;DHT22;11359;45.802;13.530;2023-04-15T09:18:10;16.90;56.50
22383;DHT22;11359;45.802;13.530;2023-04-15T09:20:40;16.90;56.50
22383;DHT22;11359;45.802;13.530;2023-04-15T09:23:14;17.00;56.40
22383;DHT22;11359;45.802;13.530;2023-04-15T09:25:41;17.00;56.40
22383;DHT22;11359;45.802;13.530;2023-04-15T09:28:08;17.00;56.30
22383;DHT22;11359;45.802;13.530;2023-04-15T09:30:34;17.10;56.30
22383;DHT22;11359;45.802;13.530;2023-04-15T09:33:01;17.10;56.30
22383;DHT22;11359;45.802;13.530;2023-04-15T09:35:27;17.10;56.30
22383;DHT22;11359;45.802;13.530;2023-04-15T09:38:04;17.10;56.20
22383;DHT22;11359;45.802;13.530;2023-04-15T09:40:38;17.30;56.30
22383;DHT22;11359;45.802;13.530;2023-04-15T09:43:05;17.20;56.20
22383;DHT22;11359;45.802;13.530;2023-04-15T09:45:32;17.30;56.20
22383;DHT22;11359;45.802;13.530;2023-04-15T09:48:13;17.40;56.20
22383;DHT22;11359;45.802;13.530;2023-04-15T09:50:43;17.40;56.20
22383;DHT22;11359;45.802;13.530;2023-04-15T09:53:19;17.50;56.20
22383;DHT22;11359;45.802;13.530;2023-04-15T09:55:49;17.60;56.20
22383;DHT22;11359;45.802;13.530;2023-04-15T09:58:29;17.60;56.10
22383;DHT22;11359;45.802;13.530;2023-04-15T10:00:56;17.70;56.00
22383;DHT22;11359;45.802;13.530;2023-04-15T10:03:25;17.70;55.80
22383;DHT22;11359;45.802;13.530;2023-04-15T10:05:53;17.80;55.70
22383;DHT22;11359;45.802;13.530;2023-04-15T10:08:22;17.80;55.60
22383;DHT22;11359;45.802;13.530;2023-04-15T10:10:50;17.90;55.60
22383;DHT22;11359;45.802;13.530;2023-04-15T10:13:19;17.90;55.50
22383;DHT22;11359;45.802;13.530;2023-04-15T10:16:07;17.80;55.40
22383;DHT22;11359;45.802;13.530;2023-04-15T10:18:37;17.80;55.30
22383;DHT22;11359;45.802;13.530;2023-04-15T10:21:04;17.90;55.20
22383;DHT22;11359;45.802;13.530;2023-04-15T10:23:31;17.80;55.20
22383;DHT22;11359;45.802;13.530;2023-04-15T10:25:58;17.90;55.20
22383;DHT22;11359;45.802;13.530;2023-04-15T10:28:25;17.80;55.10
22383;DHT22;11359;45.802;13.530;2023-04-15T10:30:52;17.90;55.10
22383;DHT22;11359;45.802;13.530;2023-04-15T10:33:21;17.80;55.00
22383;DHT22;11359;45.802;13.530;2023-04-15T10:35:48;17.80;54.90
22383;DHT22;11359;45.802;13.530;2023-04-15T10:38:41;17.80;54.90
22383;DHT22;11359;45.802;13.530;2023-04-15T10:41:12;17.80;54.90
22383;DHT22;11359;45.802;13.530;2023-04-15T10:43:48;17.80;54.80
22383;DHT22;11359;45.802;13.530;2023-04-15T10:46:21;17.80;54.80
22383;DHT22;11359;45.802;13.530;2023-04-15T10:48:49;17.80;54.70
22383;DHT22;11359;45.802;13.530;2023-04-15T10:51:16;17.80;54.70
22383;DHT22;11359;45.802;13.530;2023-04-15T10:53:42;17.70;54.60
22383;DHT22;11359;45.802;13.530;2023-04-15T10:56:09;17.70;54.60
22383;DHT22;11359;45.802;13.530;2023-04-15T10:58:42;17.70;54.50
22383;DHT22;11359;45.802;13.530;2023-04-15T11:01:08;17.60;54.50
22383;DHT22;11359;45.802;13.530;2023-04-15T11:03:39;17.60;54.50
22383;DHT22;11359;45.802;13.530;2023-04-15T11:06:05;17.50;54.40
22383;DHT22;11359;45.802;13.530;2023-04-15T11:08:56;17.50;54.30
22383;DHT22;11359;45.802;13.530;2023-04-15T11:14:28;17.40;54.30
22383;DHT22;11359;45.802;13.530;2023-04-15T11:16:53;17.30;54.30
22383;DHT22;11359;45.802;13.530;2023-04-15T11:19:19;17.20;54.30
22383;DHT22;11359;45.802;13.530;2023-04-15T11:21:45;17.20;54.40
22383;DHT22;11359;45.802;13.530;2023-04-15T11:24:11;17.10;54.40
22383;DHT22;11359;45.802;13.530;2023-04-15T11:26:48;17.10;54.40
22383;DHT22;11359;45.802;13.530;2023-04-15T11:29:17;17.10;54.40
22383;DHT22;11359;45.802;13.530;2023-04-15T11:31:46;17.10;54.40
22383;DHT22;11359;45.802;13.530;2023-04-15T11:34:21;17.00;54.30
22383;DHT22;11359;45.802;13.530;2023-04-15T11:36:48;17.00;54.90
22383;DHT22;11359;45.802;13.530;2023-04-15T11:39:14;17.00;54.30
22383;DHT22;11359;45.802;13.530;2023-04-15T11:41:41;17.00;54.30
22383;DHT22;11359;45.802;13.530;2023-04-15T11:44:17;17.00;54.30
22383;DHT22;11359;45.802;13.530;2023-04-15T11:46:43;17.00;54.20
22383;DHT22;11359;45.802;13.530;2023-04-15T11:49:09;17.00;54.20
22383;DHT22;11359;45.802;13.530;2023-04-15T11:51:35;17.00;54.30
22383;DHT22;11359;45.802;13.530;2023-04-15T11:54:00;17.00;54.30
22383;DHT22;11359;45.802;13.530;2023-04-15T11:56:26;17.00;54.30
22383;DHT22;11359;45.802;13.530;2023-04-15T11:58:56;17.10;54.30
22383;DHT22;11359;45.802;13.530;2023-04-15T12:01:38;17.10;54.30
22383;DHT22;11359;45.802;13.530;2023-04-15T12:04:16;17.20;54.30
22383;DHT22;11359;45.802;13.530;2023-04-15T12:06:45;17.30;54.20
22383;DHT22;11359;45.802;13.530;2023-04-15T12:09:12;17.40;54.10
22383;DHT22;11359;45.802;13.530;2023-04-15T12:16:38;17.60;54.00
22383;DHT22;11359;45.802;13.530;2023-04-15T12:19:08;17.70;53.90
22383;DHT22;11359;45.802;13.530;2023-04-15T12:21:35;17.80;53.80
22383;DHT22;11359;45.802;13.530;2023-04-15T12:24:05;17.80;53.60
22383;DHT22;11359;45.802;13.530;2023-04-15T12:26:45;17.90;53.40
22383;DHT22;11359;45.802;13.530;2023-04-15T12:29:13;18.00;53.30
22383;DHT22;11359;45.802;13.530;2023-04-15T12:31:53;18.00;53.30
22383;DHT22;11359;45.802;13.530;2023-04-15T12:34:29;18.00;53.30
22383;DHT22;11359;45.802;13.530;2023-04-15T12:36:56;18.00;53.20
22383;DHT22;11359;45.802;13.530;2023-04-15T12:39:23;18.10;53.10
22383;DHT22;11359;45.802;13.530;2023-04-15T12:41:50;18.10;53.10
22383;DHT22;11359;45.802;13.530;2023-04-15T12:44:16;18.10;53.00
22383;DHT22;11359;45.802;13.530;2023-04-15T12:46:41;18.10;52.90
22383;DHT22;11359;45.802;13.530;2023-04-15T12:49:07;18.20;52.90
22383;DHT22;11359;45.802;13.530;2023-04-15T12:51:33;18.20;52.80
22383;DHT22;11359;45.802;13.530;2023-04-15T12:53:59;18.30;52.90
22383;DHT22;11359;45.802;13.530;2023-04-15T12:56:25;18.30;52.80
22383;DHT22;11359;45.802;13.530;2023-04-15T12:58:51;18.30;52.80
22383;DHT22;11359;45.802;13.530;2023-04-15T13:01:17;18.30;52.80
22383;DHT22;11359;45.802;13.530;2023-04-15T13:03:43;18.40;52.90
22383;DHT22;11359;45.802;13.530;2023-04-15T13:06:09;18.50;52.90
22383;DHT22;11359;45.802;13.530;2023-04-15T13:08:36;18.50;52.90
22383;DHT22;11359;45.802;13.530;2023-04-15T13:11:02;18.60;52.70
22383;DHT22;11359;45.802;13.530;2023-04-15T13:13:28;18.60;52.30
22383;DHT22;11359;45.802;13.530;2023-04-15T13:15:57;18.70;52.10
22383;DHT22;11359;45.802;13.530;2023-04-15T13:18:23;18.70;52.00
22383;DHT22;11359;45.802;13.530;2023-04-15T13:20:49;18.80;52.00
22383;DHT22;11359;45.802;13.530;2023-04-15T13:23:15;18.80;51.60
22383;DHT22;11359;45.802;13.530;2023-04-15T13:25:41;18.80;51.60
22383;DHT22;11359;45.802;13.530;2023-04-15T13:28:08;18.90;51.40
22383;DHT22;11359;45.802;13.530;2023-04-15T13:30:36;18.90;51.00
22383;DHT22;11359;45.802;13.530;2023-04-15T13:33:02;18.90;50.70
22383;DHT22;11359;45.802;13.530;2023-04-15T13:35:28;18.90;51.20
22383;DHT22;11359;45.802;13.530;2023-04-15T13:37:53;18.80;50.40
22383;DHT22;11359;45.802;13.530;2023-04-15T13:40:20;18.80;50.20
22383;DHT22;11359;45.802;13.530;2023-04-15T13:42:45;18.80;50.20
22383;DHT22;11359;45.802;13.530;2023-04-15T13:45:11;18.80;50.10
22383;DHT22;11359;45.802;13.530;2023-04-15T13:47:37;18.80;50.00
22383;DHT22;11359;45.802;13.530;2023-04-15T13:50:03;18.80;50.00
22383;DHT22;11359;45.802;13.530;2023-04-15T13:52:29;18.80;49.90
22383;DHT22;11359;45.802;13.530;2023-04-15T13:54:54;18.70;50.00
22383;DHT22;11359;45.802;13.530;2023-04-15T13:57:20;18.80;50.00
22383;DHT22;11359;45.802;13.530;2023-04-15T13:59:46;18.80;49.90
22383;DHT22;11359;45.802;13.530;2023-04-15T14:02:12;18.80;50.00
22383;DHT22;11359;45.802;13.530;2023-04-15T14:04:37;18.80;50.20
22383;DHT22;11359;45.802;13.530;2023-04-15T14:07:03;18.80;50.00
22383;DHT22;11359;45.802;13.530;2023-04-15T14:09:29;18.80;49.90
22383;DHT22;11359;45.802;13.530;2023-04-15T14:11:55;18.80;49.70
22383;DHT22;11359;45.802;13.530;2023-04-15T14:14:21;18.80;49.60
22383;DHT22;11359;45.802;13.530;2023-04-15T14:16:47;18.90;49.50
22383;DHT22;11359;45.802;13.530;2023-04-15T14:19:14;18.80;49.30
22383;DHT22;11359;45.802;13.530;2023-04-15T14:21:39;18.80;48.90
22383;DHT22;11359;45.802;13.530;2023-04-15T14:24:08;18.80;48.80
22383;DHT22;11359;45.802;13.530;2023-04-15T14:26:34;18.80;48.60
22383;DHT22;11359;45.802;13.530;2023-04-15T14:28:59;18.80;48.70
22383;DHT22;11359;45.802;13.530;2023-04-15T14:31:25;18.80;48.80
22383;DHT22;11359;45.802;13.530;2023-04-15T14:33:51;18.90;49.00
22383;DHT22;11359;45.802;13.530;2023-04-15T14:36:17;18.90;49.10
22383;DHT22;11359;45.802;13.530;2023-04-15T14:38:42;18.90;49.10
22383;DHT22;11359;45.802;13.530;2023-04-15T14:41:08;19.00;49.10
22383;DHT22;11359;45.802;13.530;2023-04-15T14:43:37;19.10;49.30
22383;DHT22;11359;45.802;13.530;2023-04-15T14:46:03;19.20;49.40
22383;DHT22;11359;45.802;13.530;2023-04-15T14:48:30;19.30;49.50
22383;DHT22;11359;45.802;13.530;2023-04-15T14:50:56;19.30;49.40
22383;DHT22;11359;45.802;13.530;2023-04-15T14:53:22;19.40;49.40
22383;DHT22;11359;45.802;13.530;2023-04-15T14:55:51;19.50;49.20
22383;DHT22;11359;45.802;13.530;2023-04-15T14:58:16;19.50;49.10
22383;DHT22;11359;45.802;13.530;2023-04-15T15:00:42;19.60;49.00
22383;DHT22;11359;45.802;13.530;2023-04-15T15:03:09;19.70;48.80
22383;DHT22;11359;45.802;13.530;2023-04-15T15:05:40;19.80;48.80
22383;DHT22;11359;45.802;13.530;2023-04-15T15:08:06;19.80;48.50
22383;DHT22;11359;45.802;13.530;2023-04-15T15:10:33;19.80;48.30
22383;DHT22;11359;45.802;13.530;2023-04-15T15:12:58;19.90;48.30
22383;DHT22;11359;45.802;13.530;2023-04-15T15:15:24;19.90;48.20
22383;DHT22;11359;45.802;13.530;2023-04-15T15:17:50;19.90;48.10
22383;DHT22;11359;45.802;13.530;2023-04-15T15:20:16;20.10;48.70
22383;DHT22;11359;45.802;13.530;2023-04-15T15:22:43;20.20;49.20